Time;durP1;ratioP1;P1;durP2;ratioP2;P2;SDS_P1;SDS_P2;PMS_P1;PMS_P2;Temp;Humidity;BMP_temperature;BMP_pressure;BME280_temperature;BME280_humidity;BME280_pressure;Samples;Min_cycle;Max_cycle;Signal;HPM_P1;HPM_P2
2022/12/20 00:02:19;;;;;;;41.63;24.73;;;;;;;;;;5034546;27;20202;-67
2022/12/20 00:04:46;;;;;;;47.55;25.60;;;;;;;;;;5034360;28;20396;-68
2022/12/20 00:07:12;;;;;;;41.20;24.48;;;;;;;;;;5033863;28;20209;-68
2022/12/20 00:09:38;;;;;;;45.60;26.15;;;;;;;;;;5033311;28;20314;-68
2022/12/20 00:12:05;;;;;;;46.08;26.63;;;;;;;;;;5033962;28;20252;-68
2022/12/20 00:14:31;;;;;;;48.22;26.90;;;;;;;;;;5032863;28;20206;-68
2022/12/20 00:16:57;;;;;;;47.17;26.17;;;;;;;;;;5033963;28;20213;-68
2022/12/20 00:19:25;;;;;;;47.03;26.35;;;;;;;;;;5033087;28;20213;-68
2022/12/20 00:21:52;;;;;;;51.05;26.73;;;;;;;;;;5033987;28;20214;-68
2022/12/20 00:24:18;;;;;;;50.65;27.33;;;;;;;;;;5034004;28;20407;-68
2022/12/20 00:26:45;;;;;;;48.47;25.42;;;;;;;;;;5034026;28;20210;-68
2022/12/20 00:29:11;;;;;;;50.45;27.05;;;;;;;;;;5033058;27;20222;-68
2022/12/20 00:31:37;;;;;;;45.92;26.38;;;;;;;;;;5031953;28;20226;-68
2022/12/20 00:34:03;;;;;;;47.72;27.00;;;;;;;;;;5025528;28;20206;-68
2022/12/20 00:36:32;;;;;;;48.80;26.45;;;;;;;;;;5033919;28;20209;-69
2022/12/20 00:38:59;;;;;;;51.65;29.23;;;;;;;;;;5032939;28;20572;-68
2022/12/20 00:41:26;;;;;;;52.00;28.35;;;;;;;;;;5033561;28;20205;-68
2022/12/20 00:43:53;;;;;;;50.88;27.50;;;;;;;;;;5033676;28;20244;-68
2022/12/20 00:46:20;;;;;;;46.65;24.95;;;;;;;;;;5033796;28;20207;-68
2022/12/20 00:48:46;;;;;;;47.38;27.27;;;;;;;;;;5033359;28;20281;-68
2022/12/20 00:51:14;;;;;;;47.08;26.55;;;;;;;;;;5033901;28;20225;-68
2022/12/20 00:53:42;;;;;;;44.05;25.33;;;;;;;;;;5033588;28;20210;-68
2022/12/20 00:56:09;;;;;;;47.75;25.63;;;;;;;;;;5033389;28;20449;-68
2022/12/20 00:58:37;;;;;;;42.67;24.65;;;;;;;;;;5032667;28;20539;-68
2022/12/20 01:01:03;;;;;;;43.80;24.90;;;;;;;;;;5033581;28;20505;-67
2022/12/20 01:03:30;;;;;;;38.10;22.90;;;;;;;;;;5033228;28;20214;-68
2022/12/20 01:05:58;;;;;;;37.13;22.58;;;;;;;;;;5033175;28;20221;-68
2022/12/20 01:08:25;;;;;;;44.67;24.13;;;;;;;;;;5032550;28;20216;-67
2022/12/20 01:10:59;;;;;;;37.75;22.75;;;;;;;;;;5032997;28;20210;-68
2022/12/20 01:13:26;;;;;;;39.42;23.35;;;;;;;;;;5033383;28;20536;-68
2022/12/20 01:15:52;;;;;;;48.50;24.55;;;;;;;;;;5033292;28;20225;-68
2022/12/20 01:18:19;;;;;;;40.92;22.77;;;;;;;;;;5032540;28;20206;-68
2022/12/20 01:20:45;;;;;;;45.15;23.27;;;;;;;;;;5032601;28;20293;-68
2022/12/20 01:23:11;;;;;;;42.42;24.60;;;;;;;;;;5033080;28;20234;-67
2022/12/20 01:25:38;;;;;;;42.10;23.52;;;;;;;;;;5033699;28;20210;-68
2022/12/20 01:28:06;;;;;;;42.92;23.15;;;;;;;;;;5035943;28;20557;-68
2022/12/20 01:30:32;;;;;;;41.25;23.13;;;;;;;;;;5036449;28;20220;-68
2022/12/20 01:32:58;;;;;;;41.63;23.80;;;;;;;;;;5036383;28;20620;-67
2022/12/20 01:35:24;;;;;;;39.80;22.80;;;;;;;;;;5036550;28;20212;-68
2022/12/20 01:37:51;;;;;;;38.75;23.20;;;;;;;;;;5036082;28;20210;-68
2022/12/20 01:40:17;;;;;;;39.67;23.10;;;;;;;;;;5036015;28;20803;-67
2022/12/20 01:42:43;;;;;;;39.80;22.23;;;;;;;;;;5036216;28;20469;-67
2022/12/20 01:45:20;;;;;;;37.85;21.98;;;;;;;;;;5036187;28;20543;-68
2022/12/20 01:47:48;;;;;;;40.20;23.08;;;;;;;;;;5035885;28;20209;-67
2022/12/20 01:50:14;;;;;;;39.70;22.50;;;;;;;;;;5036010;28;20285;-68
2022/12/20 01:52:42;;;;;;;38.47;23.02;;;;;;;;;;5036285;28;20225;-67
2022/12/20 01:55:12;;;;;;;38.75;22.70;;;;;;;;;;5036193;28;20214;-67
2022/12/20 01:57:42;;;;;;;35.97;21.25;;;;;;;;;;5035800;28;20524;-68
2022/12/20 02:00:09;;;;;;;40.70;21.60;;;;;;;;;;5035716;28;20412;-67
2022/12/20 02:02:37;;;;;;;34.13;20.80;;;;;;;;;;5036118;28;20209;-67
2022/12/20 02:05:04;;;;;;;37.60;21.55;;;;;;;;;;5036138;28;20209;-68
2022/12/20 02:07:31;;;;;;;36.40;20.95;;;;;;;;;;5036064;28;20408;-67
2022/12/20 02:09:59;;;;;;;33.05;20.65;;;;;;;;;;5035897;28;20262;-68
2022/12/20 02:12:26;;;;;;;38.20;21.67;;;;;;;;;;5035669;28;20231;-67
2022/12/20 02:14:59;;;;;;;36.08;21.88;;;;;;;;;;5036052;28;20224;-67
2022/12/20 02:17:30;;;;;;;36.83;21.48;;;;;;;;;;5035865;28;20229;-67
2022/12/20 02:20:21;;;;;;;37.25;20.75;;;;;;;;;;5036130;27;20525;-67
2022/12/20 02:22:58;;;;;;;34.72;22.05;;;;;;;;;;5072586;28;20208;-67
2022/12/20 02:25:46;;;;;;;34.50;21.42;;;;;;;;;;5036028;28;20209;-67
2022/12/20 02:28:21;;;;;;;34.33;20.92;;;;;;;;;;5035103;28;20248;-67
2022/12/20 02:33:52;;;;;;;31.42;19.05;;;;;;;;;;5028250;28;20201;-67
2022/12/20 02:36:18;;;;;;;33.70;20.33;;;;;;;;;;5035469;28;20225;-67
2022/12/20 02:38:44;;;;;;;35.47;20.17;;;;;;;;;;5033883;28;20249;-67
2022/12/20 02:41:13;;;;;;;30.65;19.88;;;;;;;;;;5035417;28;20206;-67
2022/12/20 02:46:26;;;;;;;32.10;19.52;;;;;;;;;;5035492;28;20209;-67
2022/12/20 02:48:55;;;;;;;37.75;21.08;;;;;;;;;;5035173;28;20217;-67
2022/12/20 02:51:23;;;;;;;35.88;20.80;;;;;;;;;;5035780;28;20210;-67
2022/12/20 02:53:50;;;;;;;34.20;21.92;;;;;;;;;;5035999;28;20743;-67
2022/12/20 02:56:19;;;;;;;32.28;20.17;;;;;;;;;;5035468;28;20209;-67
2022/12/20 02:58:49;;;;;;;32.65;20.60;;;;;;;;;;5034718;28;20461;-67
2022/12/20 03:01:18;;;;;;;38.45;21.88;;;;;;;;;;5035333;28;20371;-67
2022/12/20 03:03:45;;;;;;;42.03;22.02;;;;;;;;;;5035451;28;20198;-67
2022/12/20 03:06:12;;;;;;;35.60;20.80;;;;;;;;;;5035287;28;20442;-67
2022/12/20 03:08:39;;;;;;;35.10;20.73;;;;;;;;;;5034384;28;20213;-67
2022/12/20 03:11:05;;;;;;;35.15;21.25;;;;;;;;;;5034727;28;20385;-67
2022/12/20 03:13:31;;;;;;;34.42;20.77;;;;;;;;;;5034569;28;20236;-67
2022/12/20 03:15:57;;;;;;;35.20;20.90;;;;;;;;;;5034871;28;20225;-67
2022/12/20 03:18:24;;;;;;;32.95;20.23;;;;;;;;;;5034203;28;20209;-67
2022/12/20 03:20:50;;;;;;;32.58;19.88;;;;;;;;;;5034882;28;20225;-67
2022/12/20 03:23:18;;;;;;;30.45;18.88;;;;;;;;;;5034731;28;20410;-67
2022/12/20 03:25:44;;;;;;;29.50;18.20;;;;;;;;;;5034997;28;20206;-67
2022/12/20 03:28:10;;;;;;;33.88;19.58;;;;;;;;;;5034326;28;20579;-67
2022/12/20 03:30:36;;;;;;;33.08;20.73;;;;;;;;;;5034860;28;20213;-67
2022/12/20 03:33:03;;;;;;;35.45;20.77;;;;;;;;;;5034676;28;20276;-67
2022/12/20 03:35:29;;;;;;;34.80;20.70;;;;;;;;;;5034689;28;20448;-67
2022/12/20 03:37:56;;;;;;;40.17;21.73;;;;;;;;;;5034447;28;20217;-67
2022/12/20 03:40:23;;;;;;;35.05;21.13;;;;;;;;;;5034122;28;20581;-67
2022/12/20 03:42:50;;;;;;;35.00;21.77;;;;;;;;;;5034375;28;20212;-67
2022/12/20 03:45:16;;;;;;;36.05;22.23;;;;;;;;;;5034412;28;20214;-67
2022/12/20 03:47:42;;;;;;;37.15;21.65;;;;;;;;;;5034110;28;20385;-67
2022/12/20 03:50:09;;;;;;;37.15;20.65;;;;;;;;;;5034018;28;20221;-67
2022/12/20 03:52:35;;;;;;;38.10;21.92;;;;;;;;;;5034474;28;20225;-67
2022/12/20 03:55:02;;;;;;;39.50;21.60;;;;;;;;;;5034377;28;20394;-67
2022/12/20 03:57:29;;;;;;;40.85;22.05;;;;;;;;;;5033858;28;20269;-67
2022/12/20 03:59:56;;;;;;;34.08;20.38;;;;;;;;;;5033762;28;20206;-67
2022/12/20 04:02:22;;;;;;;32.72;20.15;;;;;;;;;;5034267;28;20229;-67
2022/12/20 04:04:48;;;;;;;33.40;20.88;;;;;;;;;;5034083;28;20716;-67
2022/12/20 04:07:15;;;;;;;36.28;20.95;;;;;;;;;;5034080;28;20548;-67
2022/12/20 04:09:41;;;;;;;37.72;21.83;;;;;;;;;;5033652;28;20209;-67
2022/12/20 04:12:07;;;;;;;35.25;20.88;;;;;;;;;;5033991;28;20400;-67
2022/12/20 04:14:36;;;;;;;41.03;21.80;;;;;;;;;;5034576;28;20205;-67
2022/12/20 04:17:02;;;;;;;36.40;20.02;;;;;;;;;;5034641;28;20517;-67
2022/12/20 04:19:28;;;;;;;34.83;20.58;;;;;;;;;;5033796;28;20206;-67
2022/12/20 04:21:57;;;;;;;34.53;21.65;;;;;;;;;;5034153;28;20222;-67
2022/12/20 04:24:23;;;;;;;31.50;18.83;;;;;;;;;;5034380;28;20252;-67
2022/12/20 04:26:50;;;;;;;35.95;19.90;;;;;;;;;;5033973;28;20521;-67
2022/12/20 04:29:16;;;;;;;37.50;21.65;;;;;;;;;;5033385;28;20225;-67
2022/12/20 04:31:44;;;;;;;37.53;21.33;;;;;;;;;;5033845;28;20210;-67
2022/12/20 04:34:10;;;;;;;37.15;21.13;;;;;;;;;;5033720;28;20233;-67
2022/12/20 04:36:36;;;;;;;38.47;21.65;;;;;;;;;;5033624;28;20221;-67
2022/12/20 04:39:03;;;;;;;39.85;22.75;;;;;;;;;;5033237;28;20225;-67
2022/12/20 04:41:29;;;;;;;38.35;20.10;;;;;;;;;;5034207;28;20288;-67
2022/12/20 04:43:56;;;;;;;33.83;20.90;;;;;;;;;;5033775;28;20202;-67
2022/12/20 04:46:24;;;;;;;41.08;21.83;;;;;;;;;;5033735;28;20210;-67
2022/12/20 04:48:51;;;;;;;37.60;21.08;;;;;;;;;;5033054;28;20224;-67
2022/12/20 04:51:18;;;;;;;38.33;21.80;;;;;;;;;;5033608;28;20422;-67
2022/12/20 04:53:46;;;;;;;37.70;21.70;;;;;;;;;;5033438;28;20226;-67
2022/12/20 04:56:13;;;;;;;33.28;20.58;;;;;;;;;;5033532;28;20467;-67
2022/12/20 04:58:39;;;;;;;34.10;21.17;;;;;;;;;;5032815;28;20210;-67
2022/12/20 05:01:05;;;;;;;39.10;22.35;;;;;;;;;;5034243;28;20216;-67
2022/12/20 05:03:32;;;;;;;44.75;24.17;;;;;;;;;;5037324;28;20428;-67
2022/12/20 05:05:59;;;;;;;34.90;20.70;;;;;;;;;;5036906;28;20220;-67
2022/12/20 05:08:26;;;;;;;35.85;21.83;;;;;;;;;;5036589;28;20216;-67
2022/12/20 05:10:52;;;;;;;40.30;21.90;;;;;;;;;;5037522;28;20205;-67
2022/12/20 05:13:18;;;;;;;36.13;21.70;;;;;;;;;;5037255;28;20533;-67
2022/12/20 05:15:45;;;;;;;33.97;20.80;;;;;;;;;;5037007;28;20209;-67
2022/12/20 05:18:11;;;;;;;34.25;20.83;;;;;;;;;;5036257;28;20348;-67
2022/12/20 05:20:37;;;;;;;36.78;22.33;;;;;;;;;;5036767;28;20420;-67
2022/12/20 05:28:30;;;;;;;32.72;19.23;;;;;;;;;;5035616;28;20306;-67
2022/12/20 05:30:56;;;;;;;32.78;18.92;;;;;;;;;;5036264;28;20217;-67
2022/12/20 05:33:23;;;;;;;33.22;20.20;;;;;;;;;;5036556;27;20252;-67
2022/12/20 05:35:49;;;;;;;33.13;19.48;;;;;;;;;;5036155;28;20216;-67
2022/12/20 05:38:17;;;;;;;36.13;20.27;;;;;;;;;;5036391;28;20220;-67
2022/12/20 05:40:43;;;;;;;34.03;20.45;;;;;;;;;;5036620;28;20217;-67
2022/12/20 05:43:09;;;;;;;32.33;19.65;;;;;;;;;;5036530;28;20198;-67
2022/12/20 05:45:37;;;;;;;36.38;21.73;;;;;;;;;;5036462;28;20237;-67
2022/12/20 05:48:03;;;;;;;34.70;20.85;;;;;;;;;;5036048;28;20281;-67
2022/12/20 05:50:29;;;;;;;34.10;19.90;;;;;;;;;;5036267;28;20557;-67
2022/12/20 05:52:56;;;;;;;36.47;21.88;;;;;;;;;;5036478;28;20217;-67
2022/12/20 05:55:23;;;;;;;35.40;21.20;;;;;;;;;;5036601;28;20210;-67
2022/12/20 05:57:49;;;;;;;32.35;19.98;;;;;;;;;;5035853;28;20209;-67
2022/12/20 06:00:16;;;;;;;80.43;39.13;;;;;;;;;;5036023;28;20209;-67
2022/12/20 06:02:43;;;;;;;68.20;32.30;;;;;;;;;;5036517;28;20409;-67
2022/12/20 06:05:09;;;;;;;38.38;21.65;;;;;;;;;;5036439;28;20511;-67
2022/12/20 06:07:35;;;;;;;38.65;21.13;;;;;;;;;;5035585;28;20485;-67
2022/12/20 06:10:02;;;;;;;32.17;20.35;;;;;;;;;;5035116;28;20209;-67
2022/12/20 06:12:29;;;;;;;35.47;22.40;;;;;;;;;;5034220;28;20218;-67
2022/12/20 06:14:56;;;;;;;33.80;20.73;;;;;;;;;;5035665;28;20504;-67
2022/12/20 06:17:22;;;;;;;33.15;21.23;;;;;;;;;;5035270;28;20210;-67
2022/12/20 06:19:48;;;;;;;35.10;20.80;;;;;;;;;;5034903;28;20214;-67
2022/12/20 06:22:15;;;;;;;33.30;21.20;;;;;;;;;;5035630;28;20517;-67
2022/12/20 06:24:41;;;;;;;34.35;20.58;;;;;;;;;;5035542;28;20206;-67
2022/12/20 06:27:07;;;;;;;32.67;20.52;;;;;;;;;;5035376;28;20217;-67
2022/12/20 06:29:36;;;;;;;33.33;20.02;;;;;;;;;;5035155;28;20213;-67
2022/12/20 06:32:04;;;;;;;33.88;19.73;;;;;;;;;;5035540;28;20431;-67
2022/12/20 06:34:30;;;;;;;30.40;19.17;;;;;;;;;;5035182;28;20286;-67
2022/12/20 06:36:56;;;;;;;30.73;19.10;;;;;;;;;;5035173;28;20217;-67
2022/12/20 06:39:23;;;;;;;30.23;18.88;;;;;;;;;;5035159;28;20217;-67
2022/12/20 06:41:49;;;;;;;30.88;18.67;;;;;;;;;;5035529;28;20221;-67
2022/12/20 06:44:15;;;;;;;31.50;19.50;;;;;;;;;;5035796;28;20415;-67
2022/12/20 06:46:43;;;;;;;27.63;18.95;;;;;;;;;;5035303;28;20435;-67
2022/12/20 06:49:09;;;;;;;35.20;19.67;;;;;;;;;;5035026;28;20233;-67
2022/12/20 06:51:36;;;;;;;35.05;20.17;;;;;;;;;;5035471;28;20213;-70
2022/12/20 06:54:03;;;;;;;34.85;20.50;;;;;;;;;;5035610;28;20233;-69
2022/12/20 06:56:29;;;;;;;34.08;20.55;;;;;;;;;;5035693;28;20202;-69
2022/12/20 06:58:55;;;;;;;32.30;20.70;;;;;;;;;;5034650;28;20406;-69
2022/12/20 07:01:21;;;;;;;30.70;20.23;;;;;;;;;;5035396;28;20220;-69
2022/12/20 07:03:49;;;;;;;37.65;22.50;;;;;;;;;;5034957;28;20202;-69
2022/12/20 07:06:15;;;;;;;33.63;21.25;;;;;;;;;;5035329;28;20210;-69
2022/12/20 07:08:42;;;;;;;32.15;21.40;;;;;;;;;;5034274;28;20216;-69
2022/12/20 07:11:09;;;;;;;35.00;20.48;;;;;;;;;;5035042;28;20216;-69
2022/12/20 07:13:35;;;;;;;30.55;19.30;;;;;;;;;;5034693;28;20230;-70
2022/12/20 07:16:02;;;;;;;31.35;18.45;;;;;;;;;;5034163;28;20609;-69
2022/12/20 07:18:28;;;;;;;29.80;19.58;;;;;;;;;;5033867;28;20210;-70
2022/12/20 07:20:58;;;;;;;32.28;20.08;;;;;;;;;;5034991;28;20525;-69
2022/12/20 07:23:25;;;;;;;30.95;18.92;;;;;;;;;;5035209;28;20206;-69
2022/12/20 07:25:55;;;;;;;32.42;20.42;;;;;;;;;;5035117;28;20213;-70
2022/12/20 07:28:21;;;;;;;33.88;19.83;;;;;;;;;;5034664;27;20218;-69
2022/12/20 07:30:47;;;;;;;32.88;20.75;;;;;;;;;;5034743;28;20214;-69
2022/12/20 07:33:14;;;;;;;35.50;20.63;;;;;;;;;;5034768;28;20448;-69
2022/12/20 07:35:40;;;;;;;32.03;19.73;;;;;;;;;;5034811;28;20437;-69
2022/12/20 07:38:08;;;;;;;35.50;20.40;;;;;;;;;;5034113;28;20210;-69
2022/12/20 07:40:34;;;;;;;34.95;19.85;;;;;;;;;;5034453;28;20648;-69
2022/12/20 07:43:00;;;;;;;34.92;20.00;;;;;;;;;;5034370;28;20446;-69
2022/12/20 07:45:26;;;;;;;30.83;18.67;;;;;;;;;;5034515;28;20209;-69
2022/12/20 07:47:53;;;;;;;28.38;18.50;;;;;;;;;;5034229;28;20210;-69
2022/12/20 07:50:19;;;;;;;32.42;18.02;;;;;;;;;;5034532;28;20241;-69
2022/12/20 07:52:46;;;;;;;27.63;19.35;;;;;;;;;;5034540;28;20402;-69
2022/12/20 07:55:14;;;;;;;30.08;18.40;;;;;;;;;;5034289;28;20225;-69
2022/12/20 07:57:42;;;;;;;28.83;17.83;;;;;;;;;;5034175;27;20217;-69
2022/12/20 08:00:09;;;;;;;26.23;18.20;;;;;;;;;;5034063;28;20217;-69
2022/12/20 08:02:37;;;;;;;27.75;18.73;;;;;;;;;;5034260;28;20210;-69
2022/12/20 08:05:05;;;;;;;30.35;19.10;;;;;;;;;;5034362;28;20300;-69
2022/12/20 08:07:32;;;;;;;30.02;17.95;;;;;;;;;;5033986;28;20210;-69
2022/12/20 08:09:58;;;;;;;34.00;18.48;;;;;;;;;;5033929;28;20217;-69
2022/12/20 08:12:28;;;;;;;32.97;19.52;;;;;;;;;;5034139;28;20216;-69
2022/12/20 08:14:55;;;;;;;35.50;20.50;;;;;;;;;;5034118;28;20229;-69
2022/12/20 08:17:21;;;;;;;31.15;19.75;;;;;;;;;;5033825;28;20415;-69
2022/12/20 08:19:49;;;;;;;33.05;20.38;;;;;;;;;;5033449;28;20216;-69
2022/12/20 08:22:15;;;;;;;33.80;20.58;;;;;;;;;;5034412;28;20238;-69
2022/12/20 08:24:42;;;;;;;31.30;19.98;;;;;;;;;;5034550;28;20450;-69
2022/12/20 08:27:08;;;;;;;32.38;19.92;;;;;;;;;;5033833;28;20549;-69
2022/12/20 08:29:36;;;;;;;31.15;18.75;;;;;;;;;;5033364;28;20210;-69
2022/12/20 08:32:02;;;;;;;31.48;19.20;;;;;;;;;;5033542;28;20209;-69
2022/12/20 08:34:28;;;;;;;29.63;19.67;;;;;;;;;;5033554;28;20229;-69
2022/12/20 08:36:55;;;;;;;31.15;19.65;;;;;;;;;;5032614;28;20216;-69
2022/12/20 08:39:21;;;;;;;34.70;20.58;;;;;;;;;;5033064;28;20216;-69
2022/12/20 08:41:48;;;;;;;33.22;20.10;;;;;;;;;;5033531;28;20217;-68
2022/12/20 08:44:14;;;;;;;36.42;20.67;;;;;;;;;;5033377;28;20206;-68
2022/12/20 08:46:42;;;;;;;32.95;20.70;;;;;;;;;;5033422;28;20217;-68
2022/12/20 08:49:08;;;;;;;34.67;20.73;;;;;;;;;;5033353;28;20273;-68
2022/12/20 08:51:34;;;;;;;30.90;20.98;;;;;;;;;;5033779;28;20399;-68
2022/12/20 08:54:01;;;;;;;31.38;20.55;;;;;;;;;;5033026;28;20233;-68
2022/12/20 08:56:28;;;;;;;35.58;21.52;;;;;;;;;;5032871;28;20208;-68
2022/12/20 08:58:54;;;;;;;34.95;21.15;;;;;;;;;;5032900;28;20398;-68
2022/12/20 09:01:21;;;;;;;37.33;21.52;;;;;;;;;;5033244;28;20473;-68
2022/12/20 09:03:49;;;;;;;36.17;20.10;;;;;;;;;;5033622;28;20213;-68
2022/12/20 09:06:16;;;;;;;35.15;21.42;;;;;;;;;;5035125;28;20209;-69
2022/12/20 09:08:43;;;;;;;34.00;20.52;;;;;;;;;;5038862;28;20389;-69
2022/12/20 09:11:10;;;;;;;36.00;21.08;;;;;;;;;;5038737;28;20219;-57
2022/12/20 09:13:37;;;;;;;32.95;20.67;;;;;;;;;;5024499;28;20241;-58
2022/12/20 09:16:03;;;;;;;30.60;20.25;;;;;;;;;;5027060;28;20218;-58
2022/12/20 09:18:30;;;;;;;35.35;21.45;;;;;;;;;;5032601;28;20213;-58
2022/12/20 09:21:00;;;;;;;38.15;21.17;;;;;;;;;;5033088;28;20222;-58
2022/12/20 09:23:27;;;;;;;34.13;20.83;;;;;;;;;;5032921;28;20209;-58
2022/12/20 09:25:53;;;;;;;38.47;22.02;;;;;;;;;;5029094;28;20246;-58
2022/12/20 09:28:19;;;;;;;34.20;20.60;;;;;;;;;;5020448;28;20242;-58
2022/12/20 09:30:46;;;;;;;33.80;20.45;;;;;;;;;;5028332;28;20516;-58
2022/12/20 09:33:13;;;;;;;35.67;20.08;;;;;;;;;;5032970;28;20264;-59
2022/12/20 09:35:44;;;;;;;30.38;19.75;;;;;;;;;;5033134;28;20222;-58
2022/12/20 09:38:11;;;;;;;30.75;20.30;;;;;;;;;;5033116;28;20209;-58
2022/12/20 09:40:39;;;;;;;32.58;19.10;;;;;;;;;;5033263;28;20210;-58
2022/12/20 09:43:08;;;;;;;32.92;20.40;;;;;;;;;;5032774;28;20209;-59
2022/12/20 09:45:36;;;;;;;37.13;21.27;;;;;;;;;;5033023;28;20385;-58
2022/12/20 09:48:04;;;;;;;37.42;19.90;;;;;;;;;;5034914;28;20198;-59
2022/12/20 09:50:37;;;;;;;34.83;21.55;;;;;;;;;;5036306;28;20210;-59
2022/12/20 09:53:10;;;;;;;34.67;21.58;;;;;;;;;;5036271;28;20397;-58
2022/12/20 09:55:40;;;;;;;36.40;21.58;;;;;;;;;;5036575;28;20252;-59
2022/12/20 09:58:20;;;;;;;34.08;19.98;;;;;;;;;;5035796;28;20285;-59
2022/12/20 10:00:47;;;;;;;33.17;19.30;;;;;;;;;;5036033;28;20210;-58
2022/12/20 10:03:18;;;;;;;30.23;18.65;;;;;;;;;;5036128;28;20210;-58
2022/12/20 10:05:48;;;;;;;23.90;17.05;;;;;;;;;;5036195;28;20206;-58
2022/12/20 10:08:17;;;;;;;26.40;18.13;;;;;;;;;;5035466;28;20533;-58
2022/12/20 10:10:51;;;;;;;29.58;18.50;;;;;;;;;;5035973;28;20210;-58
2022/12/20 10:13:23;;;;;;;28.17;18.40;;;;;;;;;;5035972;27;20217;-58
2022/12/20 10:15:50;;;;;;;26.95;18.77;;;;;;;;;;5035867;28;20229;-59
2022/12/20 10:18:30;;;;;;;27.52;17.60;;;;;;;;;;5035164;28;20431;-58
2022/12/20 10:20:59;;;;;;;32.22;18.38;;;;;;;;;;5035791;28;20389;-59
2022/12/20 10:23:28;;;;;;;27.02;18.67;;;;;;;;;;5035884;28;20221;-58
2022/12/20 10:25:57;;;;;;;29.55;17.90;;;;;;;;;;5035698;28;20210;-59
2022/12/20 10:28:25;;;;;;;26.90;17.60;;;;;;;;;;5035373;28;20233;-59
2022/12/20 10:30:51;;;;;;;26.33;16.83;;;;;;;;;;5035590;28;20233;-58
2022/12/20 10:33:19;;;;;;;23.52;16.75;;;;;;;;;;5035851;28;20210;-59
2022/12/20 10:35:46;;;;;;;23.63;15.70;;;;;;;;;;5035780;28;20262;-58
2022/12/20 10:38:16;;;;;;;27.92;17.23;;;;;;;;;;5035018;28;20217;-59
2022/12/20 10:40:43;;;;;;;34.70;18.15;;;;;;;;;;5035851;28;20234;-59
2022/12/20 10:43:15;;;;;;;32.72;18.95;;;;;;;;;;5035328;28;20254;-59
2022/12/20 10:45:42;;;;;;;29.65;19.08;;;;;;;;;;5035586;28;20205;-59
2022/12/20 10:48:25;;;;;;;28.73;19.45;;;;;;;;;;5034719;28;20202;-59
2022/12/20 10:50:55;;;;;;;29.27;19.42;;;;;;;;;;5035184;28;20206;-58
2022/12/20 10:53:23;;;;;;;25.42;18.35;;;;;;;;;;5035106;28;20206;-59
2022/12/20 10:55:49;;;;;;;29.90;19.55;;;;;;;;;;5034943;28;20606;-59
2022/12/20 10:58:18;;;;;;;30.92;20.92;;;;;;;;;;5034365;28;20210;-59
2022/12/20 11:00:45;;;;;;;31.20;19.67;;;;;;;;;;5034879;28;20504;-59
2022/12/20 11:03:13;;;;;;;31.67;21.20;;;;;;;;;;5035066;28;20210;-59
2022/12/20 11:05:39;;;;;;;29.90;19.85;;;;;;;;;;5035112;28;20210;-58
2022/12/20 11:08:13;;;;;;;34.65;21.98;;;;;;;;;;5034592;28;20533;-59
2022/12/20 11:10:40;;;;;;;38.05;21.33;;;;;;;;;;5034892;28;20443;-59
2022/12/20 11:13:06;;;;;;;36.97;22.83;;;;;;;;;;5035088;28;20217;-59
2022/12/20 11:15:35;;;;;;;43.42;23.45;;;;;;;;;;5034841;28;20287;-59
2022/12/20 11:18:04;;;;;;;38.65;23.13;;;;;;;;;;5034490;27;20552;-57
2022/12/20 11:20:35;;;;;;;39.70;24.10;;;;;;;;;;5034830;28;20222;-59
2022/12/20 11:23:08;;;;;;;38.53;22.23;;;;;;;;;;5034767;28;20572;-59
2022/12/20 11:25:41;;;;;;;57.25;22.98;;;;;;;;;;5035014;28;20522;-59
2022/12/20 11:28:13;;;;;;;93.22;24.70;;;;;;;;;;5034164;28;20218;-58
2022/12/20 11:30:43;;;;;;;43.22;23.00;;;;;;;;;;5035010;28;20217;-59
2022/12/20 11:33:28;;;;;;;33.10;21.35;;;;;;;;;;5034428;28;20302;-59
2022/12/20 11:35:58;;;;;;;33.65;22.33;;;;;;;;;;5034589;27;20560;-59
2022/12/20 11:38:31;;;;;;;35.97;21.92;;;;;;;;;;5034128;27;20213;-58
2022/12/20 11:41:05;;;;;;;34.65;20.25;;;;;;;;;;5034565;28;20390;-58
2022/12/20 11:43:45;;;;;;;33.45;20.50;;;;;;;;;;5034496;28;20213;-59
2022/12/20 11:46:18;;;;;;;32.25;20.85;;;;;;;;;;5034219;28;20212;-59
2022/12/20 11:48:50;;;;;;;35.70;23.15;;;;;;;;;;5034788;28;20251;-59
2022/12/20 11:51:21;;;;;;;42.13;24.60;;;;;;;;;;5034928;28;20214;-59
2022/12/20 11:53:51;;;;;;;36.53;24.85;;;;;;;;;;5034625;28;20214;-59
2022/12/20 11:56:20;;;;;;;40.13;26.00;;;;;;;;;;5034387;28;20408;-59
2022/12/20 11:58:50;;;;;;;36.92;23.80;;;;;;;;;;5034111;28;20217;-59
2022/12/20 12:01:19;;;;;;;31.98;23.00;;;;;;;;;;5034425;28;20528;-58
2022/12/20 12:03:49;;;;;;;36.20;22.85;;;;;;;;;;5034198;28;20251;-59
2022/12/20 12:06:18;;;;;;;34.95;22.05;;;;;;;;;;5034042;28;20281;-59
2022/12/20 12:08:48;;;;;;;32.22;21.23;;;;;;;;;;5033820;28;20515;-58
2022/12/20 12:11:17;;;;;;;35.97;23.23;;;;;;;;;;5034129;28;20283;-59
2022/12/20 12:13:44;;;;;;;47.03;27.20;;;;;;;;;;5033863;28;20497;-59
2022/12/20 12:16:12;;;;;;;30.90;21.70;;;;;;;;;;5034033;28;20232;-59
2022/12/20 12:18:40;;;;;;;33.38;21.48;;;;;;;;;;5033904;28;20213;-58
2022/12/20 12:21:09;;;;;;;36.35;21.50;;;;;;;;;;5034048;28;20436;-59
2022/12/20 12:23:38;;;;;;;30.30;21.45;;;;;;;;;;5033753;28;20217;-58
2022/12/20 12:26:07;;;;;;;35.30;21.77;;;;;;;;;;5033530;28;20202;-58
2022/12/20 12:28:35;;;;;;;34.38;21.05;;;;;;;;;;5031737;28;20552;-58
2022/12/20 12:31:05;;;;;;;32.70;20.63;;;;;;;;;;5033557;28;20231;-59
2022/12/20 12:33:35;;;;;;;34.00;20.95;;;;;;;;;;5033681;28;20210;-59
2022/12/20 12:36:22;;;;;;;31.27;19.63;;;;;;;;;;5033407;28;20302;-59
2022/12/20 12:39:12;;;;;;;29.95;19.77;;;;;;;;;;5033246;28;20210;-59
2022/12/20 12:41:57;;;;;;;30.20;19.27;;;;;;;;;;5033551;28;20229;-58
2022/12/20 12:44:31;;;;;;;31.35;20.52;;;;;;;;;;5033457;28;20432;-58
2022/12/20 12:46:59;;;;;;;32.60;21.33;;;;;;;;;;5033422;28;20578;-59
2022/12/20 12:49:27;;;;;;;34.78;21.55;;;;;;;;;;5033235;28;20217;-59
2022/12/20 12:51:57;;;;;;;34.85;21.98;;;;;;;;;;5033414;28;20469;-59
2022/12/20 12:54:25;;;;;;;44.20;24.73;;;;;;;;;;5033174;28;20525;-59
2022/12/20 12:56:52;;;;;;;34.72;21.65;;;;;;;;;;5032459;28;20234;-59
2022/12/20 12:59:36;;;;;;;32.58;22.15;;;;;;;;;;5032828;28;20222;-59
2022/12/20 13:02:19;;;;;;;37.42;22.48;;;;;;;;;;5033556;28;20532;-59
2022/12/20 13:04:55;;;;;;;37.97;22.50;;;;;;;;;;5033034;28;20228;-59
2022/12/20 13:07:29;;;;;;;32.53;21.13;;;;;;;;;;5032659;28;20212;-59
2022/12/20 13:09:55;;;;;;;34.13;22.48;;;;;;;;;;5032929;28;20209;-59
2022/12/20 13:12:49;;;;;;;38.55;21.70;;;;;;;;;;5032916;28;20216;-58
2022/12/20 13:15:35;;;;;;;33.70;21.23;;;;;;;;;;5032918;28;20230;-59
2022/12/20 13:18:02;;;;;;;39.38;23.15;;;;;;;;;;5032489;28;20244;-58
2022/12/20 13:20:29;;;;;;;37.38;22.92;;;;;;;;;;5033246;28;20236;-58
2022/12/20 13:23:12;;;;;;;40.05;26.58;;;;;;;;;;5035275;28;20505;-59
2022/12/20 13:25:39;;;;;;;36.65;22.65;;;;;;;;;;5036563;28;20205;-58
2022/12/20 13:28:24;;;;;;;34.67;22.85;;;;;;;;;;5035847;28;20265;-59
2022/12/20 13:31:11;;;;;;;40.55;22.80;;;;;;;;;;5036578;28;20217;-58
2022/12/20 13:33:41;;;;;;;40.72;22.05;;;;;;;;;;5036231;28;20210;-59
2022/12/20 13:36:26;;;;;;;35.17;21.65;;;;;;;;;;5036288;27;20226;-59
2022/12/20 13:38:55;;;;;;;30.58;21.13;;;;;;;;;;5036456;28;20220;-59
2022/12/20 13:41:33;;;;;;;29.23;19.73;;;;;;;;;;5036604;28;20254;-59
2022/12/20 13:44:01;;;;;;;33.10;21.65;;;;;;;;;;5035995;28;20217;-59
2022/12/20 13:46:30;;;;;;;33.38;21.17;;;;;;;;;;5035682;28;20213;-58
2022/12/20 13:48:59;;;;;;;29.67;18.85;;;;;;;;;;5035636;28;20214;-56
2022/12/20 13:51:26;;;;;;;31.75;18.17;;;;;;;;;;5035943;28;20277;-58
2022/12/20 13:53:55;;;;;;;28.13;18.75;;;;;;;;;;5036058;28;20524;-59
2022/12/20 13:56:32;;;;;;;27.52;18.42;;;;;;;;;;5035963;28;20275;-58
2022/12/20 13:59:03;;;;;;;30.40;18.85;;;;;;;;;;5035736;28;20231;-58
2022/12/20 14:01:29;;;;;;;30.05;18.00;;;;;;;;;;5036019;28;20217;-59
2022/12/20 14:03:56;;;;;;;30.50;18.92;;;;;;;;;;5035993;28;20241;-59
2022/12/20 14:06:23;;;;;;;33.25;19.70;;;;;;;;;;5035711;28;20206;-59
2022/12/20 14:08:51;;;;;;;25.63;18.60;;;;;;;;;;5036030;28;20217;-58
2022/12/20 14:11:21;;;;;;;30.38;19.60;;;;;;;;;;5036504;28;20217;-59
2022/12/20 14:13:52;;;;;;;35.35;19.55;;;;;;;;;;5036160;28;20294;-58
2022/12/20 14:16:19;;;;;;;31.17;20.15;;;;;;;;;;5036068;28;20232;-58
2022/12/20 14:18:48;;;;;;;30.25;19.42;;;;;;;;;;5035752;28;20398;-59
2022/12/20 14:21:15;;;;;;;26.65;18.38;;;;;;;;;;5036284;28;20224;-59
2022/12/20 14:23:42;;;;;;;29.13;18.92;;;;;;;;;;5035888;28;20274;-59
2022/12/20 14:26:11;;;;;;;32.20;20.23;;;;;;;;;;5035755;28;20210;-59
2022/12/20 14:28:39;;;;;;;28.25;18.63;;;;;;;;;;5035211;28;20225;-59
2022/12/20 14:31:06;;;;;;;31.40;20.17;;;;;;;;;;5035580;28;20210;-59
2022/12/20 14:33:35;;;;;;;31.33;21.13;;;;;;;;;;5034350;28;20214;-59
2022/12/20 14:36:08;;;;;;;29.13;20.38;;;;;;;;;;5035274;28;20266;-59